Time;durP1;ratioP1;P1;durP2;ratioP2;P2;SDS_P1;SDS_P2;PMS_P1;PMS_P2;Temp;Humidity;BMP_temperature;BMP_pressure;BME280_temperature;BME280_humidity;BME280_pressure;Samples;Min_cycle;Max_cycle;Signal;HPM_P1;HPM_P2
2021/12/15 00:00:30;;;;;;;53.17;21.80;;;;;9.40;102297.00;;;;5015053;28;20233;-73
2021/12/15 00:03:19;;;;;;;55.37;21.37;;;;;9.30;102292.00;;;;4995590;28;20248;-72
2021/12/15 00:06:12;;;;;;;53.40;22.27;;;;;9.20;102299.00;;;;5012349;28;20274;-72
2021/12/15 00:09:01;;;;;;;57.13;23.13;;;;;9.30;102303.00;;;;4982355;28;20247;-71
2021/12/15 00:11:47;;;;;;;45.63;20.53;;;;;9.30;102306.00;;;;4998737;28;20288;-72
2021/12/15 00:14:36;;;;;;;49.83;21.17;;;;;9.40;102299.00;;;;4981901;28;20242;-71
2021/12/15 00:17:23;;;;;;;51.03;22.67;;;;;9.30;102295.00;;;;4978903;28;20232;-73
2021/12/15 00:20:14;;;;;;;50.47;21.70;;;;;9.20;102291.00;;;;4969646;28;20383;-73
2021/12/15 00:23:01;;;;;;;49.03;20.63;;;;;9.20;102296.00;;;;5001246;28;20228;-72
2021/12/15 00:25:47;;;;;;;48.80;21.20;;;;;9.50;102299.00;;;;5000471;28;20229;-73
2021/12/15 00:28:35;;;;;;;51.63;22.37;;;;;9.30;102293.00;;;;5014758;28;20274;-73
2021/12/15 00:31:23;;;;;;;53.47;20.93;;;;;9.20;102290.00;;;;5004167;28;20232;-73
2021/12/15 00:34:15;;;;;;;53.63;22.03;;;;;9.30;102283.00;;;;5002713;28;20900;-73
2021/12/15 00:37:02;;;;;;;44.70;19.87;;;;;9.20;102299.00;;;;4995730;28;20617;-72
2021/12/15 00:39:49;;;;;;;52.10;21.83;;;;;9.40;102280.00;;;;5013700;28;20285;-72
2021/12/15 00:42:35;;;;;;;50.90;21.60;;;;;9.40;102292.00;;;;5010033;28;20237;-73
2021/12/15 00:45:22;;;;;;;52.37;21.17;;;;;9.30;102294.00;;;;5010968;28;20255;-73
2021/12/15 00:48:10;;;;;;;56.67;21.47;;;;;9.30;102303.00;;;;5008339;28;20234;-72
2021/12/15 00:50:57;;;;;;;47.50;20.97;;;;;9.20;102297.00;;;;5002728;28;20237;-73
2021/12/15 00:53:43;;;;;;;43.33;19.90;;;;;9.10;102280.00;;;;4984188;28;20231;-73
2021/12/15 00:56:30;;;;;;;44.07;19.73;;;;;9.10;102294.00;;;;5011357;28;20261;-72
2021/12/15 00:59:16;;;;;;;48.87;20.77;;;;;9.20;102285.00;;;;5014686;28;20233;-73
2021/12/15 01:02:05;;;;;;;50.93;22.50;;;;;9.20;102287.00;;;;4986188;28;20232;-73
2021/12/15 01:04:53;;;;;;;46.90;20.00;;;;;9.10;102296.00;;;;5006937;28;20289;-70
2021/12/15 01:07:40;;;;;;;46.67;18.80;;;;;9.10;102295.00;;;;4994662;28;20315;-72
2021/12/15 01:10:39;;;;;;;53.97;20.97;;;;;9.20;102293.00;;;;5009605;28;20245;-71
2021/12/15 01:19:51;;;;;;;44.30;20.70;;;;;9.20;102293.00;;;;5021931;28;20254;-70
2021/12/15 01:22:42;;;;;;;47.47;21.07;;;;;9.10;102295.00;;;;5003651;28;20610;-72
2021/12/15 01:25:35;;;;;;;47.50;19.47;;;;;9.20;102297.00;;;;5012394;28;20242;-71
2021/12/15 01:28:23;;;;;;;46.37;19.67;;;;;9.10;102301.00;;;;4991387;28;20246;-71
2021/12/15 01:31:11;;;;;;;43.30;20.03;;;;;9.10;102279.00;;;;4984652;28;20244;-72
2021/12/15 01:33:58;;;;;;;44.47;18.97;;;;;9.10;102286.00;;;;5008616;28;20239;-72
2021/12/15 01:36:44;;;;;;;46.87;19.17;;;;;9.10;102287.00;;;;4981975;28;20227;-72
2021/12/15 01:39:31;;;;;;;41.23;19.80;;;;;9.10;102298.00;;;;5010344;28;20265;-72
2021/12/15 01:42:17;;;;;;;45.07;20.27;;;;;9.10;102292.00;;;;5010573;28;20360;-69
2021/12/15 01:48:13;;;;;;;45.67;19.13;;;;;9.00;102292.00;;;;5008687;28;20699;-70
2021/12/15 01:51:00;;;;;;;40.77;17.77;;;;;9.00;102284.00;;;;5006235;28;20325;-71
2021/12/15 01:53:47;;;;;;;40.33;18.20;;;;;9.00;102296.00;;;;4996798;28;20234;-72
2021/12/15 01:56:35;;;;;;;42.43;18.97;;;;;9.00;102282.00;;;;5009986;28;20282;-71
2021/12/15 01:59:24;;;;;;;41.60;19.03;;;;;9.10;102285.00;;;;5007086;28;20246;-69
2021/12/15 02:02:10;;;;;;;47.73;18.53;;;;;9.10;102294.00;;;;5001809;28;20237;-71
2021/12/15 02:04:57;;;;;;;40.63;18.60;;;;;9.10;102300.00;;;;5009921;28;20235;-72
2021/12/15 02:07:45;;;;;;;38.43;17.77;;;;;9.10;102290.00;;;;4982146;28;20707;-70
2021/12/15 02:10:35;;;;;;;42.57;17.87;;;;;9.10;102297.00;;;;5020016;28;20242;-73
2021/12/15 02:13:23;;;;;;;35.93;18.13;;;;;9.00;102302.00;;;;4997805;28;20342;-72
2021/12/15 02:16:11;;;;;;;34.90;17.37;;;;;9.10;102294.00;;;;4993348;28;20791;-73
2021/12/15 02:18:58;;;;;;;36.70;18.27;;;;;9.10;102298.00;;;;4988772;28;20672;-71
2021/12/15 02:21:45;;;;;;;41.07;17.23;;;;;9.10;102292.00;;;;4988795;28;20241;-72
2021/12/15 02:24:34;;;;;;;44.73;19.23;;;;;9.10;102283.00;;;;5011430;28;20715;-71
2021/12/15 02:27:21;;;;;;;43.37;18.17;;;;;9.10;102295.00;;;;5021352;28;20229;-72
2021/12/15 02:30:27;;;;;;;45.17;19.77;;;;;9.30;102304.00;;;;5015635;28;20282;-72
2021/12/15 02:33:42;;;;;;;38.83;18.33;;;;;9.20;102295.00;;;;5005874;28;20225;-72
2021/12/15 02:39:35;;;;;;;43.17;18.00;;;;;9.20;102304.00;;;;5000844;28;20620;-71
2021/12/15 02:42:23;;;;;;;46.60;19.43;;;;;9.20;102288.00;;;;4992665;28;20325;-72
2021/12/15 02:45:14;;;;;;;47.23;19.13;;;;;9.30;102262.00;;;;4985159;28;20231;-72
2021/12/15 02:48:00;;;;;;;44.47;18.53;;;;;9.30;102281.00;;;;4984925;28;20227;-71
2021/12/15 02:50:46;;;;;;;43.30;18.03;;;;;9.20;102265.00;;;;4994903;28;20316;-71
2021/12/15 02:53:33;;;;;;;42.10;18.17;;;;;9.30;102294.00;;;;5002960;28;20234;-71
2021/12/15 02:56:20;;;;;;;38.83;17.80;;;;;9.20;102286.00;;;;5000468;28;20235;-71
2021/12/15 02:59:08;;;;;;;41.47;17.53;;;;;9.10;102282.00;;;;4997876;28;20229;-71
2021/12/15 03:02:03;;;;;;;43.53;18.10;;;;;9.10;102278.00;;;;4994293;28;20289;-71
2021/12/15 03:05:00;;;;;;;35.60;16.17;;;;;9.00;102279.00;;;;5006282;28;20229;-71
2021/12/15 03:07:58;;;;;;;38.23;16.80;;;;;9.00;102282.00;;;;4997450;28;20231;-71
2021/12/15 03:16:59;;;;;;;33.77;15.20;;;;;8.90;102286.00;;;;5005873;28;20245;-71
2021/12/15 03:19:45;;;;;;;33.53;15.77;;;;;8.90;102270.00;;;;4999704;28;20297;-72
2021/12/15 03:22:31;;;;;;;35.67;15.90;;;;;8.90;102276.00;;;;5021745;28;20617;-71
2021/12/15 03:25:18;;;;;;;40.33;18.20;;;;;9.00;102273.00;;;;5009662;28;20699;-69
2021/12/15 03:34:38;;;;;;;40.83;17.37;;;;;9.00;102275.00;;;;5014457;28;20861;-71
2021/12/15 03:37:25;;;;;;;41.27;18.77;;;;;9.10;102274.00;;;;4987185;28;20610;-72
2021/12/15 03:40:17;;;;;;;40.77;18.50;;;;;9.20;102280.00;;;;4986786;28;20315;-71
2021/12/15 03:43:07;;;;;;;42.87;17.40;;;;;9.10;102274.00;;;;5003426;28;20233;-71
2021/12/15 03:45:56;;;;;;;42.77;19.40;;;;;9.10;102278.00;;;;5008705;28;20248;-71
2021/12/15 03:48:45;;;;;;;46.07;18.13;;;;;9.10;102278.00;;;;4996845;28;20226;-71
2021/12/15 03:51:32;;;;;;;47.43;20.20;;;;;9.10;102280.00;;;;5001401;28;20242;-72
2021/12/15 03:54:18;;;;;;;51.93;21.20;;;;;9.30;102284.00;;;;5020405;28;20277;-73
2021/12/15 03:57:05;;;;;;;47.50;21.53;;;;;9.30;102284.00;;;;5001463;28;20633;-72
2021/12/15 03:59:53;;;;;;;50.13;21.47;;;;;9.20;102282.00;;;;5003798;28;20250;-73
2021/12/15 04:02:41;;;;;;;49.30;21.73;;;;;9.10;102288.00;;;;4996823;28;20231;-73
2021/12/15 04:05:29;;;;;;;56.63;21.83;;;;;9.30;102281.00;;;;4982283;28;20378;-71
2021/12/15 04:08:16;;;;;;;52.23;21.27;;;;;9.20;102291.00;;;;4982990;28;20688;-72
2021/12/15 04:11:05;;;;;;;53.47;22.00;;;;;9.20;102301.00;;;;5000286;28;20230;-72
2021/12/15 04:13:58;;;;;;;52.37;22.20;;;;;9.20;102294.00;;;;4983069;28;20718;-73
2021/12/15 04:16:57;;;;;;;56.13;21.87;;;;;9.20;102295.00;;;;4990676;28;20243;-73
2021/12/15 04:19:43;;;;;;;53.70;23.00;;;;;9.20;102263.00;;;;4990263;28;20231;-73
2021/12/15 04:22:31;;;;;;;50.30;21.80;;;;;9.20;102292.00;;;;5022208;28;20300;-71
2021/12/15 04:25:24;;;;;;;55.63;22.23;;;;;9.20;102304.00;;;;5007454;28;20229;-73
2021/12/15 04:28:13;;;;;;;50.77;22.17;;;;;9.20;102305.00;;;;5008722;28;20253;-72
2021/12/15 04:31:03;;;;;;;47.87;21.73;;;;;9.20;102305.00;;;;5002774;28;20356;-72
2021/12/15 04:33:55;;;;;;;44.83;20.77;;;;;9.10;102298.00;;;;5008240;28;20304;-72
2021/12/15 04:36:45;;;;;;;51.03;21.40;;;;;9.20;102305.00;;;;5015208;28;20325;-72
2021/12/15 04:39:33;;;;;;;51.13;21.43;;;;;9.20;102305.00;;;;5024471;28;20285;-72
2021/12/15 04:42:21;;;;;;;56.03;21.50;;;;;9.20;102314.00;;;;5011235;28;20282;-73
2021/12/15 04:45:09;;;;;;;52.37;21.77;;;;;9.30;102286.00;;;;5009752;28;20685;-73
2021/12/15 04:47:59;;;;;;;48.43;21.40;;;;;9.30;102289.00;;;;4993041;28;20410;-73
2021/12/15 04:50:46;;;;;;;53.30;22.57;;;;;9.30;102309.00;;;;4981866;28;20238;-73
2021/12/15 04:53:32;;;;;;;49.80;22.17;;;;;9.30;102303.00;;;;5021075;28;20242;-72
2021/12/15 04:56:20;;;;;;;51.50;21.77;;;;;9.30;102282.00;;;;5015339;28;20829;-73
2021/12/15 04:59:07;;;;;;;53.27;21.67;;;;;9.30;102304.00;;;;5004419;28;20238;-74
2021/12/15 05:01:54;;;;;;;57.13;23.20;;;;;9.40;102316.00;;;;4998928;28;20266;-72
2021/12/15 05:04:41;;;;;;;54.77;22.00;;;;;9.30;102322.00;;;;5014381;28;20366;-72
2021/12/15 05:07:27;;;;;;;52.83;21.30;;;;;9.20;102323.00;;;;5021490;28;20296;-72
2021/12/15 05:10:14;;;;;;;47.97;20.33;;;;;9.30;102326.00;;;;5009602;28;20232;-73
2021/12/15 05:13:03;;;;;;;53.00;21.07;;;;;9.40;102322.00;;;;5011206;28;20301;-72
2021/12/15 05:15:50;;;;;;;51.43;21.83;;;;;9.30;102315.00;;;;4992612;28;20304;-72
2021/12/15 05:18:37;;;;;;;55.77;21.23;;;;;9.40;102323.00;;;;5019399;28;20238;-73
2021/12/15 05:21:25;;;;;;;49.20;19.77;;;;;9.40;102318.00;;;;5014485;28;20237;-72
2021/12/15 05:24:22;;;;;;;51.73;20.37;;;;;9.50;102326.00;;;;5018273;28;20431;-72
2021/12/15 05:27:12;;;;;;;49.77;20.40;;;;;9.30;102329.00;;;;4989113;28;20231;-72
2021/12/15 05:30:00;;;;;;;52.33;20.03;;;;;9.50;102333.00;;;;5002967;28;20238;-71
2021/12/15 05:32:48;;;;;;;50.77;20.13;;;;;9.40;102329.00;;;;4982003;28;20298;-73
2021/12/15 05:35:36;;;;;;;56.97;20.83;;;;;9.40;102336.00;;;;5009803;28;20246;-71
2021/12/15 05:38:23;;;;;;;48.53;20.60;;;;;9.40;102336.00;;;;5010727;28;20653;-72
2021/12/15 05:41:09;;;;;;;53.47;20.77;;;;;9.40;102335.00;;;;5016033;28;20229;-72
2021/12/15 05:43:55;;;;;;;53.13;20.73;;;;;9.30;102331.00;;;;5006328;28;20310;-72
2021/12/15 05:46:43;;;;;;;52.77;20.33;;;;;9.30;102334.00;;;;5013151;28;20233;-69
2021/12/15 05:49:29;;;;;;;62.63;23.40;;;;;9.50;102343.00;;;;5012943;28;20270;-72
2021/12/15 05:52:17;;;;;;;51.67;21.77;;;;;9.40;102346.00;;;;5015497;28;20311;-72
2021/12/15 05:55:07;;;;;;;52.00;20.87;;;;;9.30;102338.00;;;;4988195;28;20731;-73
2021/12/15 05:57:56;;;;;;;53.07;21.23;;;;;9.30;102351.00;;;;5004661;28;20242;-72
2021/12/15 06:00:47;;;;;;;56.47;21.07;;;;;9.30;102354.00;;;;4981238;28;20333;-71
2021/12/15 06:03:34;;;;;;;59.60;21.53;;;;;9.40;102342.00;;;;4987350;28;20243;-72
2021/12/15 06:06:21;;;;;;;58.30;21.90;;;;;9.40;102344.00;;;;5012819;28;20248;-72
2021/12/15 06:09:11;;;;;;;57.43;21.47;;;;;9.40;102339.00;;;;4990019;28;20236;-71
2021/12/15 06:11:57;;;;;;;52.97;20.77;;;;;9.40;102349.00;;;;4982573;28;20840;-72
2021/12/15 06:14:43;;;;;;;58.70;20.97;;;;;9.30;102356.00;;;;4980663;28;20277;-72
2021/12/15 06:17:29;;;;;;;54.57;22.00;;;;;9.30;102348.00;;;;4995314;28;20358;-72
2021/12/15 06:20:17;;;;;;;53.33;19.77;;;;;9.30;102347.00;;;;4988756;28;20234;-71
2021/12/15 06:23:10;;;;;;;55.87;20.23;;;;;9.40;102355.00;;;;4988771;28;20364;-72
2021/12/15 06:25:59;;;;;;;57.03;21.50;;;;;9.40;102357.00;;;;4999255;28;20234;-71
2021/12/15 06:28:51;;;;;;;57.00;21.27;;;;;9.40;102354.00;;;;5007656;28;20239;-72
2021/12/15 06:31:39;;;;;;;57.50;21.37;;;;;9.50;102360.00;;;;5007712;28;20593;-73
2021/12/15 06:34:25;;;;;;;54.50;20.07;;;;;9.40;102372.00;;;;5020550;28;20233;-72
2021/12/15 06:37:16;;;;;;;50.93;21.27;;;;;9.50;102359.00;;;;5012092;28;20286;-72
2021/12/15 06:40:07;;;;;;;53.40;20.63;;;;;9.50;102370.00;;;;5006531;28;20274;-72
2021/12/15 06:42:53;;;;;;;52.90;20.80;;;;;9.40;102377.00;;;;4998930;28;20318;-72
2021/12/15 06:45:54;;;;;;;56.47;21.23;;;;;9.40;102384.00;;;;5006851;28;20784;-73
2021/12/15 06:58:15;;;;;;;52.33;20.80;;;;;9.40;102388.00;;;;5000574;28;20281;-71
2021/12/15 07:01:03;;;;;;;50.73;20.57;;;;;9.40;102396.00;;;;5001360;28;20274;-72
2021/12/15 07:03:50;;;;;;;51.87;20.57;;;;;9.40;102383.00;;;;4999848;28;20266;-72
2021/12/15 07:06:36;;;;;;;49.43;20.00;;;;;9.40;102390.00;;;;5005224;28;20234;-72
2021/12/15 07:09:24;;;;;;;48.53;19.87;;;;;9.40;102381.00;;;;4997203;28;20240;-73
2021/12/15 07:12:11;;;;;;;47.43;19.60;;;;;9.40;102389.00;;;;4996969;28;20306;-73
2021/12/15 07:14:58;;;;;;;46.93;19.27;;;;;9.30;102391.00;;;;4999850;28;20239;-73
2021/12/15 07:17:47;;;;;;;44.87;20.27;;;;;9.40;102390.00;;;;4989683;28;20344;-74
2021/12/15 07:20:39;;;;;;;52.40;19.70;;;;;9.30;102407.00;;;;5009114;28;20306;-72
2021/12/15 07:23:26;;;;;;;44.23;20.00;;;;;9.40;102388.00;;;;5012778;28;20246;-72
2021/12/15 07:26:13;;;;;;;56.33;20.37;;;;;9.40;102382.00;;;;5015048;28;20248;-72
2021/12/15 07:29:01;;;;;;;52.77;19.97;;;;;9.60;102397.00;;;;4983263;28;20374;-71
2021/12/15 07:31:47;;;;;;;48.37;19.60;;;;;9.40;102400.00;;;;4981519;28;20231;-69
2021/12/15 07:34:33;;;;;;;49.43;20.17;;;;;9.50;102387.00;;;;5018089;28;20258;-70
2021/12/15 07:37:20;;;;;;;48.27;19.53;;;;;9.40;102396.00;;;;5008068;28;20235;-71
2021/12/15 07:40:13;;;;;;;47.57;18.97;;;;;9.30;102391.00;;;;4988712;28;20307;-70
2021/12/15 07:43:07;;;;;;;48.03;19.67;;;;;9.40;102402.00;;;;4980787;28;20796;-71
2021/12/15 07:45:59;;;;;;;54.80;20.33;;;;;9.40;102405.00;;;;4995826;28;20358;-71
2021/12/15 07:48:45;;;;;;;48.10;19.70;;;;;9.40;102415.00;;;;4990506;28;20772;-70
2021/12/15 07:51:32;;;;;;;49.70;18.93;;;;;9.40;102410.00;;;;5015617;28;20250;-70
2021/12/15 07:54:19;;;;;;;52.13;20.40;;;;;9.40;102412.00;;;;5010637;28;20272;-70
2021/12/15 07:57:09;;;;;;;43.13;19.00;;;;;9.30;102408.00;;;;4990892;28;20390;-70
2021/12/15 07:59:57;;;;;;;56.17;20.93;;;;;9.60;102411.00;;;;5004675;28;20292;-70
2021/12/15 08:02:45;;;;;;;44.03;20.63;;;;;9.50;102402.00;;;;4984018;28;20240;-70
2021/12/15 08:05:32;;;;;;;50.20;19.77;;;;;9.60;102397.00;;;;4982832;28;20227;-70
2021/12/15 08:08:20;;;;;;;49.07;19.97;;;;;9.50;102414.00;;;;4999494;28;20233;-74
2021/12/15 08:11:06;;;;;;;50.33;21.67;;;;;9.50;102415.00;;;;5012602;28;20238;-70
2021/12/15 08:13:52;;;;;;;46.87;19.77;;;;;9.40;102421.00;;;;4994888;28;20261;-71
2021/12/15 08:16:39;;;;;;;56.30;21.63;;;;;9.60;102412.00;;;;5008453;28;20237;-69
2021/12/15 08:19:27;;;;;;;64.83;23.83;;;;;9.60;102414.00;;;;4986804;28;20245;-69
2021/12/15 08:22:13;;;;;;;51.17;21.83;;;;;9.50;102418.00;;;;4985005;28;20298;-70
2021/12/15 08:25:00;;;;;;;53.37;22.07;;;;;9.50;102417.00;;;;5006763;28;20623;-71
2021/12/15 08:27:47;;;;;;;60.97;22.93;;;;;9.50;102426.00;;;;4980491;28;20351;-71
2021/12/15 08:30:35;;;;;;;56.53;21.83;;;;;9.50;102429.00;;;;5009192;28;20242;-71
2021/12/15 08:33:23;;;;;;;52.47;22.93;;;;;9.60;102428.00;;;;5017341;28;20287;-72
2021/12/15 08:36:14;;;;;;;52.67;21.87;;;;;9.60;102425.00;;;;5001117;28;20311;-72
2021/12/15 08:39:00;;;;;;;58.90;22.20;;;;;9.70;102431.00;;;;5006272;28;20866;-71
2021/12/15 08:41:47;;;;;;;59.43;21.77;;;;;9.60;102431.00;;;;4983187;28;22552;-72
2021/12/15 08:44:33;;;;;;;54.87;21.37;;;;;9.50;102434.00;;;;5022918;28;20290;-72
2021/12/15 08:47:19;;;;;;;51.73;21.80;;;;;9.60;102424.00;;;;4995832;28;20238;-71
2021/12/15 08:50:10;;;;;;;48.43;20.70;;;;;9.60;102431.00;;;;5014336;28;20288;-71
2021/12/15 08:52:59;;;;;;;48.20;21.40;;;;;9.60;102437.00;;;;4982730;28;20234;-71
2021/12/15 08:55:47;;;;;;;52.93;22.53;;;;;9.50;102433.00;;;;4985065;28;20226;-71
2021/12/15 08:58:33;;;;;;;49.57;19.73;;;;;9.50;102440.00;;;;5016043;28;20309;-71
2021/12/15 09:01:21;;;;;;;52.20;21.20;;;;;9.60;102442.00;;;;5019919;28;20238;-70
2021/12/15 09:04:08;;;;;;;52.03;20.60;;;;;9.70;102433.00;;;;5005221;28;20312;-73
2021/12/15 09:06:54;;;;;;;52.27;20.73;;;;;9.70;102443.00;;;;4987196;28;20232;-71
2021/12/15 09:09:42;;;;;;;53.17;20.67;;;;;9.70;102451.00;;;;4990143;28;20239;-71
2021/12/15 09:12:28;;;;;;;49.60;20.37;;;;;9.70;102456.00;;;;5007611;28;20644;-72
2021/12/15 09:15:15;;;;;;;50.77;20.70;;;;;9.70;102450.00;;;;5014035;28;20294;-71
2021/12/15 09:18:02;;;;;;;54.17;20.27;;;;;9.70;102457.00;;;;4990243;28;20244;-71
2021/12/15 09:20:48;;;;;;;46.33;19.47;;;;;9.70;102437.00;;;;4989524;28;20292;-70
2021/12/15 09:23:35;;;;;;;46.73;20.07;;;;;9.50;102457.00;;;;5019545;28;20731;-72
2021/12/15 09:26:23;;;;;;;46.47;19.57;;;;;9.70;102449.00;;;;5016555;28;20238;-71
2021/12/15 09:29:10;;;;;;;50.33;19.63;;;;;9.60;102457.00;;;;4999418;28;20360;-71
2021/12/15 09:31:56;;;;;;;48.10;18.77;;;;;9.70;102463.00;;;;4994445;28;20240;-69
2021/12/15 09:34:43;;;;;;;49.80;19.87;;;;;9.60;102462.00;;;;4999397;28;22840;-71
2021/12/15 09:37:30;;;;;;;53.83;19.63;;;;;9.80;102465.00;;;;4989539;28;20230;-73
2021/12/15 09:40:18;;;;;;;44.40;19.27;;;;;9.90;102465.00;;;;4995900;28;20277;-74
2021/12/15 09:43:06;;;;;;;51.53;20.10;;;;;9.80;102463.00;;;;4997256;28;20230;-71
2021/12/15 09:45:55;;;;;;;62.63;20.37;;;;;9.90;102459.00;;;;4994578;28;20229;-71
2021/12/15 10:04:27;;;;;;;49.63;19.10;;;;;9.90;102463.00;;;;4986362;28;21024;-70
2021/12/15 10:10:38;;;;;;;53.00;19.80;;;;;9.80;102468.00;;;;4986232;28;20254;-69
2021/12/15 10:10:47;;;;;;;53.70;20.07;;;;;9.80;102471.00;;;;5009562;28;20240;-68
2021/12/15 10:19:52;;;;;;;57.50;20.73;;;;;9.90;102459.00;;;;5001753;28;20255;-70
2021/12/15 10:22:44;;;;;;;53.90;21.43;;;;;9.80;102463.00;;;;5007748;28;20325;-71
2021/12/15 10:25:34;;;;;;;51.17;20.43;;;;;9.80;102456.00;;;;5016417;28;20235;-71
2021/12/15 10:28:23;;;;;;;55.63;21.07;;;;;9.80;102461.00;;;;5015554;28;20234;-70
2021/12/15 10:31:13;;;;;;;50.70;19.87;;;;;9.90;102461.00;;;;5002429;28;20227;-71
2021/12/15 10:34:05;;;;;;;53.77;21.23;;;;;9.90;102455.00;;;;5008537;28;20255;-71
2021/12/15 10:36:51;;;;;;;54.37;22.07;;;;;9.90;102458.00;;;;4990704;28;20315;-72
2021/12/15 10:39:38;;;;;;;55.30;22.40;;;;;9.90;102464.00;;;;5023045;28;20246;-70
2021/12/15 10:42:30;;;;;;;55.60;21.80;;;;;9.90;102462.00;;;;5009463;28;20236;-73
2021/12/15 10:45:18;;;;;;;58.47;22.30;;;;;9.80;102466.00;;;;4988038;28;20282;-71
2021/12/15 10:48:10;;;;;;;65.30;23.13;;;;;9.90;102468.00;;;;5006689;28;20607;-72
2021/12/15 10:50:56;;;;;;;55.70;22.33;;;;;9.80;102470.00;;;;5001066;28;20308;-70
2021/12/15 10:53:42;;;;;;;60.33;22.13;;;;;9.90;102473.00;;;;4986443;28;20228;-72
2021/12/15 10:56:32;;;;;;;63.63;22.53;;;;;10.00;102454.00;;;;4994166;28;20235;-73
2021/12/15 10:59:18;;;;;;;67.90;23.13;;;;;9.90;102456.00;;;;4999628;28;20233;-71
2021/12/15 11:02:07;;;;;;;57.83;22.03;;;;;9.90;102453.00;;;;4991917;28;20956;-71
2021/12/15 11:04:57;;;;;;;58.27;22.23;;;;;9.90;102459.00;;;;5003404;28;20323;-71
2021/12/15 11:07:45;;;;;;;58.87;22.03;;;;;10.00;102466.00;;;;5004129;28;20362;-73
2021/12/15 11:10:35;;;;;;;66.50;23.50;;;;;10.00;102459.00;;;;4986145;28;20228;-71
2021/12/15 11:13:24;;;;;;;66.37;23.77;;;;;9.90;102463.00;;;;5002298;28;20253;-72
2021/12/15 11:16:10;;;;;;;60.80;22.83;;;;;10.00;102453.00;;;;5013004;28;20227;-72
2021/12/15 11:18:59;;;;;;;68.67;25.20;;;;;10.10;102453.00;;;;4990102;28;20628;-71
2021/12/15 11:21:46;;;;;;;62.53;24.23;;;;;10.10;102456.00;;;;4986618;28;20240;-71
2021/12/15 11:24:35;;;;;;;67.07;23.33;;;;;10.20;102450.00;;;;5018256;28;20235;-71
2021/12/15 11:27:23;;;;;;;65.53;23.93;;;;;10.00;102459.00;;;;5020937;28;20336;-73
2021/12/15 11:30:20;;;;;;;65.43;23.63;;;;;10.20;102454.00;;;;5011438;28;20244;-71
2021/12/15 11:33:10;;;;;;;66.97;24.20;;;;;10.00;102452.00;;;;4981645;28;20241;-72
2021/12/15 11:36:00;;;;;;;67.80;24.17;;;;;10.00;102452.00;;;;4993024;28;20239;-71
2021/12/15 11:38:53;;;;;;;66.37;23.00;;;;;10.00;102456.00;;;;4987426;28;20353;-71
2021/12/15 11:41:42;;;;;;;60.40;21.40;;;;;10.10;102454.00;;;;4986175;28;20229;-72
2021/12/15 11:44:30;;;;;;;60.70;21.33;;;;;9.90;102454.00;;;;4987718;28;20250;-72
2021/12/15 11:47:23;;;;;;;56.93;21.77;;;;;10.10;102455.00;;;;4987084;28;20637;-73
2021/12/15 11:50:13;;;;;;;60.83;22.87;;;;;10.00;102453.00;;;;5001785;28;20759;-72
2021/12/15 11:52:59;;;;;;;60.63;20.77;;;;;10.00;102443.00;;;;4998556;28;20239;-71
2021/12/15 11:55:47;;;;;;;54.30;21.87;;;;;10.00;102446.00;;;;4988620;28;20241;-70
2021/12/15 11:58:33;;;;;;;55.07;21.07;;;;;10.10;102450.00;;;;4991448;28;20289;-71
2021/12/15 12:01:40;;;;;;;51.63;21.00;;;;;10.10;102453.00;;;;4994215;28;21126;-73
2021/12/15 12:04:32;;;;;;;60.07;20.93;;;;;10.20;102450.00;;;;4987091;28;20234;-72
2021/12/15 12:07:25;;;;;;;57.90;19.60;;;;;10.20;102446.00;;;;4994163;28;20312;-74
2021/12/15 12:10:17;;;;;;;56.17;19.60;;;;;10.10;102448.00;;;;5003850;28;20235;-71
2021/12/15 12:13:10;;;;;;;57.10;19.10;;;;;10.10;102458.00;;;;4993189;28;20227;-72
2021/12/15 12:15:59;;;;;;;55.07;19.80;;;;;10.00;102446.00;;;;4978830;28;20243;-71
2021/12/15 12:18:45;;;;;;;55.10;19.13;;;;;10.00;102441.00;;;;4978464;28;20300;-71
2021/12/15 12:21:33;;;;;;;50.57;18.60;;;;;10.00;102445.00;;;;5012180;28;20243;-71
2021/12/15 12:24:19;;;;;;;52.03;17.80;;;;;10.10;102434.00;;;;5014104;28;20238;-72
2021/12/15 12:27:07;;;;;;;52.67;18.13;;;;;10.10;102445.00;;;;4989722;28;20240;-72
2021/12/15 12:29:56;;;;;;;49.67;18.20;;;;;10.10;102447.00;;;;4995705;28;20358;-70
2021/12/15 12:32:44;;;;;;;48.43;17.67;;;;;10.20;102445.00;;;;4995262;28;20224;-69
2021/12/15 12:35:33;;;;;;;51.40;17.47;;;;;10.20;102439.00;;;;5004800;28;20365;-70
2021/12/15 12:38:22;;;;;;;55.37;18.23;;;;;10.10;102431.00;;;;4998627;28;20248;-70
2021/12/15 12:41:13;;;;;;;48.97;17.43;;;;;10.10;102432.00;;;;4992632;28;20236;-70
2021/12/15 12:44:02;;;;;;;52.33;17.77;;;;;10.20;102424.00;;;;4988684;28;20791;-70
2021/12/15 12:47:01;;;;;;;45.17;17.53;;;;;10.20;102431.00;;;;4988480;28;20248;-72
2021/12/15 12:59:25;;;;;;;55.53;17.13;;;;;10.20;102430.00;;;;5017370;28;20749;-72
2021/12/15 13:02:44;;;;;;;48.13;16.97;;;;;10.30;102431.00;;;;5011634;28;20239;-73
2021/12/15 13:05:39;;;;;;;50.57;17.53;;;;;10.40;102433.00;;;;5034625;28;20740;-72
2021/12/15 13:08:38;;;;;;;48.80;17.07;;;;;10.30;102424.00;;;;5036847;28;21024;-72
2021/12/15 13:11:34;;;;;;;47.43;17.07;;;;;10.30;102426.00;;;;5001773;28;20324;-71
2021/12/15 13:14:35;;;;;;;48.70;17.27;;;;;10.40;102421.00;;;;5013854;28;20287;-68
2021/12/15 13:17:26;;;;;;;45.07;17.77;;;;;10.40;102423.00;;;;4993668;28;20247;-71
2021/12/15 13:20:25;;;;;;;50.27;18.50;;;;;10.40;102432.00;;;;4991740;28;20236;-71
2021/12/15 13:23:37;;;;;;;46.30;16.23;;;;;10.30;102424.00;;;;4985174;28;20351;-69
2021/12/15 13:29:58;;;;;;;42.63;16.47;;;;;10.30;102422.00;;;;4951077;28;20241;-71
2021/12/15 13:32:47;;;;;;;45.87;17.20;;;;;10.40;102423.00;;;;4978019;28;20240;-70
2021/12/15 13:35:44;;;;;;;48.50;17.17;;;;;10.50;102414.00;;;;5011207;28;20237;-71
2021/12/15 13:38:33;;;;;;;48.97;17.67;;;;;10.40;102416.00;;;;5018921;28;20723;-71
2021/12/15 13:41:37;;;;;;;49.63;17.87;;;;;10.40;102414.00;;;;5022115;28;20740;-70
2021/12/15 13:44:29;;;;;;;46.80;17.47;;;;;10.50;102426.00;;;;4986098;28;20300;-71
2021/12/15 13:47:19;;;;;;;42.23;16.90;;;;;10.40;102421.00;;;;4991334;28;20229;-70
2021/12/15 13:50:16;;;;;;;43.83;16.93;;;;;10.40;102409.00;;;;5003625;28;20297;-70
2021/12/15 13:53:04;;;;;;;42.80;16.23;;;;;10.40;102405.00;;;;5014231;28;20818;-70
2021/12/15 13:55:50;;;;;;;42.63;16.73;;;;;10.40;102407.00;;;;5003582;28;20704;-71
2021/12/15 13:58:37;;;;;;;44.73;16.03;;;;;10.30;102414.00;;;;5022903;28;20315;-69
2021/12/15 14:01:23;;;;;;;41.23;16.27;;;;;10.30;102422.00;;;;4985672;28;20238;-69
2021/12/15 14:04:09;;;;;;;46.43;17.03;;;;;10.30;102428.00;;;;5007638;28;20284;-69
2021/12/15 14:06:56;;;;;;;43.27;16.53;;;;;10.30;102426.00;;;;5011720;28;20854;-69
2021/12/15 14:09:43;;;;;;;43.27;16.07;;;;;10.40;102431.00;;;;5003701;28;20246;-68
2021/12/15 14:12:52;;;;;;;37.67;15.93;;;;;10.30;102419.00;;;;5002222;28;20360;-70
2021/12/15 14:15:53;;;;;;;42.97;16.20;;;;;10.30;102436.00;;;;5008755;28;20301;-68
2021/12/15 14:18:41;;;;;;;43.40;16.37;;;;;10.40;102428.00;;;;5007685;28;20238;-71
2021/12/15 14:21:34;;;;;;;46.40;16.77;;;;;10.30;102424.00;;;;4992060;28;20313;-70
2021/12/15 14:24:21;;;;;;;40.30;16.53;;;;;10.30;102399.00;;;;4981060;28;20236;-71
2021/12/15 14:27:10;;;;;;;45.77;17.50;;;;;10.30;102434.00;;;;4989430;28;20898;-71
2021/12/15 14:29:56;;;;;;;38.77;15.57;;;;;10.20;102436.00;;;;5000648;28;20377;-70
2021/12/15 14:32:43;;;;;;;39.63;16.13;;;;;10.20;102435.00;;;;4989429;28;20359;-72
2021/12/15 14:35:29;;;;;;;38.70;16.30;;;;;10.20;102430.00;;;;5009301;28;20399;-69
2021/12/15 14:38:15;;;;;;;39.07;15.50;;;;;10.10;102444.00;;;;4952830;28;20273;-71
2021/12/15 14:41:16;;;;;;;39.73;15.47;;;;;10.10;102438.00;;;;4984919;28;20329;-70
2021/12/15 14:44:09;;;;;;;41.03;16.07;;;;;10.10;102439.00;;;;4986882;28;20316;-70
2021/12/15 14:46:58;;;;;;;41.50;17.00;;;;;10.10;102442.00;;;;4986587;28;20285;-70
2021/12/15 14:49:46;;;;;;;41.03;16.60;;;;;10.20;102451.00;;;;4986900;28;20233;-69
2021/12/15 14:52:35;;;;;;;36.17;15.43;;;;;10.10;102451.00;;;;4987065;28;20242;-71